createdAt,value
2018-04-29T00:00:57.081Z,56.40
2018-04-29T00:03:24.600Z,55.90
2018-04-29T00:05:52.137Z,55.51
2018-04-29T00:08:19.659Z,55.64
2018-04-29T00:10:47.201Z,55.94
2018-04-29T00:13:14.748Z,56.06
2018-04-29T00:15:42.276Z,55.60
2018-04-29T00:18:09.816Z,55.77
2018-04-29T00:20:37.353Z,56.42
2018-04-29T00:23:04.897Z,56.62
2018-04-29T00:25:32.444Z,56.06
2018-04-29T00:27:59.961Z,56.34
2018-04-29T00:30:27.491Z,57.05
2018-04-29T00:32:55.090Z,57.91
2018-04-29T00:35:22.586Z,57.76
2018-04-29T00:37:50.113Z,56.30
2018-04-29T00:40:17.658Z,56.47
2018-04-29T00:42:45.188Z,57.18
2018-04-29T00:45:12.720Z,57.54
2018-04-29T00:47:40.236Z,56.48
2018-04-29T00:50:07.768Z,57.21
2018-04-29T00:52:35.296Z,57.53
2018-04-29T00:55:02.821Z,57.85
2018-04-29T00:57:30.344Z,56.95
2018-04-29T00:59:57.873Z,58.49
2018-04-29T01:02:25.411Z,56.81
2018-04-29T01:04:52.945Z,56.83
2018-04-29T01:07:20.464Z,57.76
2018-04-29T01:09:47.984Z,57.22
2018-04-29T01:12:15.498Z,57.20
2018-04-29T01:14:43.032Z,58.00
2018-04-29T01:17:10.548Z,58.36
2018-04-29T01:19:38.075Z,57.69
2018-04-29T01:22:05.605Z,60.19
2018-04-29T01:24:33.129Z,58.86
2018-04-29T01:27:00.654Z,58.37
2018-04-29T01:29:28.182Z,60.38
2018-04-29T01:31:55.700Z,61.08
2018-04-29T01:34:23.228Z,59.05
2018-04-29T01:36:50.759Z,59.11
2018-04-29T01:39:18.281Z,59.56
2018-04-29T01:41:45.813Z,59.27
2018-04-29T01:44:13.332Z,61.64
2018-04-29T01:46:40.858Z,60.65
2018-04-29T01:49:08.372Z,60.21
2018-04-29T01:51:35.982Z,61.80
2018-04-29T01:54:03.442Z,61.39
2018-04-29T01:56:30.967Z,60.77
2018-04-29T01:58:58.480Z,60.15
2018-04-29T02:01:26.012Z,60.33
2018-04-29T02:03:53.530Z,60.20
2018-04-29T02:06:21.046Z,60.59
2018-04-29T02:08:48.598Z,60.60
2018-04-29T02:11:16.121Z,60.98
2018-04-29T02:13:43.643Z,60.67
2018-04-29T02:16:11.164Z,61.23
2018-04-29T02:18:38.724Z,61.74
2018-04-29T02:21:06.228Z,61.44
2018-04-29T02:23:33.754Z,61.21
2018-04-29T02:26:01.275Z,62.27
2018-04-29T02:28:28.801Z,64.53
2018-04-29T02:30:56.319Z,65.00
2018-04-29T02:33:23.848Z,62.19
2018-04-29T02:35:51.376Z,61.88
2018-04-29T02:38:18.903Z,63.52
2018-04-29T02:40:46.436Z,62.57
2018-04-29T02:43:13.960Z,62.24
2018-04-29T02:45:41.491Z,62.05
2018-04-29T02:48:09.033Z,61.52
2018-04-29T02:50:36.568Z,61.43
2018-04-29T02:53:04.103Z,63.92
2018-04-29T02:55:31.625Z,61.84
2018-04-29T02:57:59.173Z,63.73
2018-04-29T03:00:26.702Z,62.60
2018-04-29T03:02:54.237Z,62.03
2018-04-29T03:05:21.793Z,61.44
2018-04-29T03:07:49.317Z,61.48
2018-04-29T03:10:16.873Z,61.03
2018-04-29T03:12:44.404Z,60.89
2018-04-29T03:15:11.928Z,61.18
2018-04-29T03:17:39.476Z,61.50
2018-04-29T03:20:07.061Z,62.09
2018-04-29T03:22:34.597Z,61.17
2018-04-29T03:25:02.129Z,61.61
2018-04-29T03:27:29.656Z,61.27
2018-04-29T03:29:57.182Z,62.64
2018-04-29T03:32:24.703Z,62.87
2018-04-29T03:34:52.225Z,61.65
2018-04-29T03:37:19.765Z,62.51
2018-04-29T03:39:47.359Z,62.57
2018-04-29T03:42:14.893Z,63.29
2018-04-29T03:44:42.418Z,62.82
2018-04-29T03:47:09.947Z,63.23
2018-04-29T03:49:37.556Z,63.53
2018-04-29T03:52:05.112Z,62.44
2018-04-29T03:54:32.657Z,64.42
2018-04-29T03:57:11.917Z,64.21
2018-04-29T03:59:51.215Z,64.88
2018-04-29T04:02:30.741Z,64.91
2018-04-29T04:04:58.211Z,62.76
2018-04-29T04:07:25.734Z,63.56
2018-04-29T04:09:53.273Z,63.72
2018-04-29T04:12:20.796Z,65.64
2018-04-29T04:14:48.320Z,63.45
2018-04-29T04:17:15.849Z,64.14
2018-04-29T04:19:43.364Z,63.22
2018-04-29T04:22:10.901Z,64.71
2018-04-29T04:24:38.426Z,66.46
2018-04-29T04:27:05.949Z,66.69
2018-04-29T04:29:33.477Z,66.07
2018-04-29T04:32:00.991Z,67.72
2018-04-29T04:34:28.524Z,66.95
2018-04-29T04:36:56.115Z,65.16
2018-04-29T04:39:23.615Z,64.84
2018-04-29T04:41:51.143Z,66.85
2018-04-29T04:44:18.668Z,64.68
2018-04-29T04:46:46.193Z,67.04
2018-04-29T04:49:13.724Z,66.51
2018-04-29T04:51:41.240Z,67.85
2018-04-29T04:54:08.770Z,67.87
2018-04-29T04:56:36.289Z,68.15
2018-04-29T04:59:03.827Z,66.51
2018-04-29T05:01:31.348Z,67.96
2018-04-29T05:03:58.864Z,67.38
2018-04-29T05:06:26.389Z,67.72
2018-04-29T05:08:53.909Z,66.05
2018-04-29T05:11:21.442Z,67.00
2018-04-29T05:13:48.982Z,66.69
2018-04-29T05:16:16.529Z,68.35
2018-04-29T05:18:44.065Z,67.25
2018-04-29T05:21:11.592Z,67.21
2018-04-29T05:23:39.111Z,67.28
2018-04-29T05:26:06.623Z,67.62
2018-04-29T05:28:34.168Z,68.15
2018-04-29T05:31:01.685Z,70.25
2018-04-29T05:33:29.221Z,67.52
2018-04-29T05:35:56.746Z,67.93
2018-04-29T05:38:24.275Z,68.17
2018-04-29T05:40:51.806Z,68.09
2018-04-29T05:43:19.332Z,67.42
2018-04-29T05:45:46.847Z,67.91
2018-04-29T05:48:14.374Z,68.14
2018-04-29T05:50:41.893Z,67.28
2018-04-29T05:53:09.425Z,66.37
2018-04-29T05:55:36.952Z,65.92
2018-04-29T05:58:04.498Z,64.87
2018-04-29T06:00:32.032Z,64.05
2018-04-29T06:02:59.565Z,63.87
2018-04-29T06:05:27.091Z,63.62
2018-04-29T06:07:54.616Z,63.22
2018-04-29T06:10:22.143Z,63.17
2018-04-29T06:12:49.669Z,62.92
2018-04-29T06:15:18.000Z,62.52
2018-04-29T06:17:45.539Z,62.69
2018-04-29T06:20:13.065Z,62.61
2018-04-29T06:22:40.580Z,61.62
2018-04-29T06:25:08.104Z,58.75
2018-04-29T06:27:35.623Z,57.62
2018-04-29T06:30:03.146Z,53.81
2018-04-29T06:32:30.684Z,56.68
2018-04-29T06:34:58.221Z,57.01
2018-04-29T06:37:25.748Z,56.04
2018-04-29T06:39:53.264Z,56.97
2018-04-29T06:42:20.792Z,52.87
2018-04-29T06:44:48.313Z,54.76
2018-04-29T06:47:16.024Z,51.66
2018-04-29T06:49:43.548Z,53.27
2018-04-29T06:52:11.087Z,46.94
2018-04-29T06:54:38.632Z,47.58
2018-04-29T06:57:06.159Z,46.78
2018-04-29T06:59:33.718Z,50.40
2018-04-29T07:02:01.253Z,49.90
2018-04-29T07:04:28.787Z,50.46
2018-04-29T07:06:56.313Z,46.31
2018-04-29T07:09:23.828Z,48.79
2018-04-29T07:11:51.349Z,49.81
2018-04-29T07:14:18.875Z,48.68
2018-04-29T07:16:46.407Z,48.03
2018-04-29T07:19:13.988Z,47.49
2018-04-29T07:21:41.504Z,47.62
2018-04-29T07:24:09.108Z,48.44
2018-04-29T07:26:36.628Z,48.72
2018-04-29T07:29:04.155Z,48.23
2018-04-29T07:31:31.674Z,48.39
2018-04-29T07:33:59.295Z,46.59
2018-04-29T07:36:26.812Z,45.51
2018-04-29T07:38:54.339Z,45.94
2018-04-29T07:41:22.035Z,47.22
2018-04-29T07:43:49.593Z,44.72
2018-04-29T07:46:17.119Z,44.03
2018-04-29T07:48:44.679Z,46.65
2018-04-29T07:51:12.230Z,45.61
2018-04-29T07:53:39.837Z,42.09
2018-04-29T07:56:07.347Z,43.38
2018-04-29T07:58:34.863Z,43.16
2018-04-29T08:01:02.384Z,44.46
2018-04-29T08:03:29.904Z,42.83
2018-04-29T08:05:57.429Z,42.42
2018-04-29T08:08:24.956Z,42.60
2018-04-29T08:10:52.471Z,41.43
2018-04-29T08:13:19.995Z,39.99
2018-04-29T08:15:47.598Z,42.56
2018-04-29T08:18:15.065Z,41.42
2018-04-29T08:20:42.593Z,41.56
2018-04-29T08:23:10.115Z,41.30
2018-04-29T08:25:37.636Z,38.75
2018-04-29T08:28:05.162Z,41.45
2018-04-29T08:30:32.696Z,41.02
2018-04-29T08:33:00.214Z,40.78
2018-04-29T08:35:27.846Z,42.34
2018-04-29T08:37:55.355Z,42.07
2018-04-29T08:40:22.890Z,41.72
2018-04-29T08:42:50.425Z,40.77
2018-04-29T08:45:17.946Z,41.54
2018-04-29T08:47:45.469Z,40.82
2018-04-29T08:50:13.176Z,41.55
2018-04-29T08:52:40.700Z,41.30
2018-04-29T08:55:08.217Z,41.16
2018-04-29T08:57:35.743Z,37.76
2018-04-29T09:00:03.265Z,37.32
2018-04-29T09:02:30.896Z,40.41
2018-04-29T09:04:58.428Z,38.52
2018-04-29T09:07:25.959Z,37.99
2018-04-29T09:09:53.583Z,31.95
2018-04-29T09:12:21.110Z,36.88
2018-04-29T09:14:48.650Z,33.95
2018-04-29T09:17:16.189Z,34.68
2018-04-29T09:19:43.701Z,26.84
2018-04-29T09:22:11.228Z,26.76
2018-04-29T09:24:38.771Z,29.53
2018-04-29T09:27:06.300Z,33.51
2018-04-29T09:29:33.821Z,27.08
2018-04-29T09:32:01.350Z,27.32
2018-04-29T09:34:28.878Z,26.63
2018-04-29T09:36:56.457Z,29.63
2018-04-29T09:39:23.956Z,26.75
2018-04-29T09:41:51.553Z,28.15
2018-04-29T09:44:19.080Z,28.18
2018-04-29T09:46:46.596Z,25.25
2018-04-29T09:49:14.119Z,28.34
2018-04-29T09:51:41.648Z,29.03
2018-04-29T09:54:09.176Z,26.60
2018-04-29T09:56:36.745Z,28.76
2018-04-29T09:59:04.294Z,28.07
2018-04-29T10:01:35.778Z,25.07
2018-04-29T10:04:03.311Z,26.99
2018-04-29T10:06:30.877Z,25.40
2018-04-29T10:08:58.396Z,27.91
2018-04-29T10:11:25.916Z,24.64
2018-04-29T10:13:53.462Z,27.74
2018-04-29T10:16:20.986Z,26.28
2018-04-29T10:18:48.555Z,25.35
2018-04-29T10:21:16.067Z,23.27
2018-04-29T10:23:43.599Z,25.19
2018-04-29T10:26:11.134Z,26.27
2018-04-29T10:28:38.658Z,25.20
2018-04-29T10:31:06.187Z,25.62
2018-04-29T10:33:33.720Z,23.34
2018-04-29T10:36:01.249Z,25.63
2018-04-29T10:38:28.780Z,24.76
2018-04-29T10:40:56.302Z,23.58
2018-04-29T10:43:23.833Z,23.62
2018-04-29T10:45:51.361Z,20.94
2018-04-29T10:48:18.877Z,25.59
2018-04-29T10:50:46.403Z,26.70
2018-04-29T10:53:13.932Z,24.95
2018-04-29T10:55:41.461Z,24.93
2018-04-29T10:58:08.972Z,25.14
2018-04-29T11:00:36.498Z,24.72
2018-04-29T11:03:04.029Z,25.00
2018-04-29T11:05:31.559Z,26.74
2018-04-29T11:07:59.088Z,27.66
2018-04-29T11:10:26.613Z,27.48
2018-04-29T11:12:54.137Z,28.33
2018-04-29T11:15:21.669Z,30.49
2018-04-29T11:17:49.184Z,30.29
2018-04-29T11:20:16.713Z,30.22
2018-04-29T11:22:44.241Z,30.91
2018-04-29T11:25:11.768Z,30.94
2018-04-29T11:27:39.283Z,30.79
2018-04-29T11:30:06.809Z,32.65
2018-04-29T11:32:34.337Z,33.54
2018-04-29T11:35:01.856Z,34.00
2018-04-29T11:37:29.374Z,34.21
2018-04-29T11:39:56.891Z,34.73
2018-04-29T11:42:24.419Z,34.35
2018-04-29T11:44:51.935Z,35.45
2018-04-29T11:47:19.464Z,33.01
2018-04-29T11:49:46.998Z,35.01
2018-04-29T11:52:14.513Z,33.19
2018-04-29T11:54:42.152Z,35.62
2018-04-29T11:57:09.675Z,33.72
2018-04-29T11:59:37.193Z,34.08
2018-04-29T12:02:04.721Z,34.27
2018-04-29T12:04:32.236Z,37.44
2018-04-29T12:06:59.772Z,36.83
2018-04-29T12:09:27.409Z,36.91
2018-04-29T12:11:54.932Z,36.61
2018-04-29T12:14:22.454Z,37.93
2018-04-29T12:16:49.983Z,35.02
2018-04-29T12:19:17.512Z,38.17
2018-04-29T12:21:45.031Z,37.34
2018-04-29T12:24:12.543Z,36.38
2018-04-29T12:26:40.048Z,37.27
2018-04-29T12:29:07.575Z,37.48
2018-04-29T12:31:35.108Z,37.17
2018-04-29T12:34:02.634Z,36.43
2018-04-29T12:36:30.153Z,36.08
2018-04-29T12:38:57.686Z,36.68
2018-04-29T12:41:25.209Z,37.45
2018-04-29T12:43:52.735Z,36.67
2018-04-29T12:46:20.264Z,37.23
2018-04-29T12:48:47.784Z,37.77
2018-04-29T12:51:15.300Z,37.42
2018-04-29T12:53:42.818Z,37.12
2018-04-29T12:56:10.347Z,36.50
2018-04-29T12:58:37.866Z,37.14
2018-04-29T13:01:05.418Z,36.88
2018-04-29T13:03:32.938Z,36.95
2018-04-29T13:06:00.452Z,36.18
2018-04-29T13:08:27.972Z,37.11
2018-04-29T13:10:55.505Z,37.68
2018-04-29T13:13:23.031Z,36.61
2018-04-29T13:15:50.550Z,36.61
2018-04-29T13:18:18.084Z,36.66
2018-04-29T13:20:45.603Z,37.05
2018-04-29T13:23:13.119Z,37.40
2018-04-29T13:25:40.635Z,36.73
2018-04-29T13:28:08.169Z,35.93
2018-04-29T13:30:35.704Z,37.32
2018-04-29T13:33:03.229Z,37.02
2018-04-29T13:35:30.760Z,36.41
2018-04-29T13:37:58.277Z,36.94
2018-04-29T13:40:25.805Z,37.33
2018-04-29T13:42:53.336Z,36.96
2018-04-29T13:45:20.857Z,37.31
2018-04-29T13:47:49.134Z,36.98
2018-04-29T13:50:16.650Z,37.29
2018-04-29T13:52:44.175Z,36.55
2018-04-29T13:55:11.770Z,37.24
2018-04-29T13:57:39.297Z,37.04
2018-04-29T14:00:06.820Z,37.01
2018-04-29T14:02:34.349Z,37.07
2018-04-29T14:05:01.910Z,37.05
2018-04-29T14:07:29.447Z,36.94
2018-04-29T14:09:56.969Z,37.04
2018-04-29T14:12:24.481Z,37.28
2018-04-29T14:14:51.994Z,37.20
2018-04-29T14:17:19.577Z,36.74
2018-04-29T14:19:47.120Z,37.19
2018-04-29T14:22:14.704Z,37.27
2018-04-29T14:24:42.213Z,36.94
2018-04-29T14:27:09.736Z,36.90
2018-04-29T14:29:37.258Z,37.21
2018-04-29T14:32:04.787Z,38.12
2018-04-29T14:34:32.303Z,37.62
2018-04-29T14:36:59.874Z,37.11
2018-04-29T14:39:27.397Z,37.36
2018-04-29T14:41:54.919Z,37.82
2018-04-29T14:44:22.455Z,38.72
2018-04-29T14:46:49.970Z,38.63
2018-04-29T14:49:17.522Z,38.21
2018-04-29T14:51:45.059Z,38.40
2018-04-29T14:54:12.595Z,39.12
2018-04-29T14:56:40.113Z,37.63
2018-04-29T14:59:07.695Z,38.20
2018-04-29T15:01:35.206Z,39.02
2018-04-29T15:04:02.736Z,38.33
2018-04-29T15:06:30.303Z,38.62
2018-04-29T15:08:57.820Z,38.53
2018-04-29T15:11:25.340Z,38.77
2018-04-29T15:13:52.866Z,38.41
2018-04-29T15:16:20.396Z,38.74
2018-04-29T15:18:59.705Z,39.32
2018-04-29T15:21:27.225Z,39.16
2018-04-29T15:23:54.764Z,39.23
2018-04-29T15:26:22.279Z,38.70
2018-04-29T15:28:49.903Z,40.50
2018-04-29T15:31:17.433Z,40.88
2018-04-29T15:33:44.965Z,39.57
2018-04-29T15:36:12.509Z,39.17
2018-04-29T15:38:40.128Z,40.03
2018-04-29T15:41:07.658Z,39.50
2018-04-29T15:43:35.192Z,39.86
2018-04-29T15:46:02.826Z,40.39
2018-04-29T15:48:30.383Z,40.61
2018-04-29T15:50:57.915Z,39.77
2018-04-29T15:53:25.453Z,40.57
2018-04-29T15:55:52.988Z,40.75
2018-04-29T15:58:20.627Z,40.83
2018-04-29T16:00:48.150Z,41.04
2018-04-29T16:03:15.672Z,39.71
2018-04-29T16:05:43.299Z,41.05
2018-04-29T16:08:10.820Z,39.99
2018-04-29T16:10:38.349Z,41.09
2018-04-29T16:13:05.868Z,41.17
2018-04-29T16:15:33.383Z,41.12
2018-04-29T16:18:01.001Z,41.04
2018-04-29T16:20:28.561Z,41.46
2018-04-29T16:22:56.102Z,40.65
2018-04-29T16:25:23.627Z,41.43
2018-04-29T16:27:51.153Z,41.10
2018-04-29T16:30:18.664Z,41.09
2018-04-29T16:32:46.183Z,41.71
2018-04-29T16:35:13.827Z,41.67
2018-04-29T16:37:41.344Z,41.96
2018-04-29T16:40:08.920Z,41.18
2018-04-29T16:42:36.456Z,42.04
2018-04-29T16:45:04.059Z,42.39
2018-04-29T16:47:31.609Z,42.01
2018-04-29T16:49:59.180Z,41.89
2018-04-29T16:52:26.734Z,42.27
2018-04-29T16:54:54.256Z,42.63
2018-04-29T16:57:21.822Z,41.90
2018-04-29T16:59:49.403Z,42.81
2018-04-29T17:02:16.962Z,42.21
2018-04-29T17:04:44.539Z,42.13
2018-04-29T17:07:12.071Z,42.71
2018-04-29T17:09:39.584Z,42.85
2018-04-29T17:12:07.099Z,42.38
2018-04-29T17:14:34.619Z,41.62
2018-04-29T17:17:02.186Z,41.76
2018-04-29T17:19:29.801Z,42.25
2018-04-29T17:21:57.358Z,42.30
2018-04-29T17:24:24.917Z,42.65
2018-04-29T17:26:52.440Z,41.55
2018-04-29T17:29:20.056Z,42.27
2018-04-29T17:31:47.517Z,42.48
2018-04-29T17:34:15.049Z,41.82
2018-04-29T17:36:42.580Z,42.33
2018-04-29T17:39:10.140Z,42.36
2018-04-29T17:41:37.652Z,42.56
2018-04-29T17:44:05.279Z,42.25
2018-04-29T17:46:32.855Z,41.81
2018-04-29T17:49:00.386Z,41.84
2018-04-29T17:51:27.912Z,42.60
2018-04-29T17:53:55.429Z,42.90
2018-04-29T17:56:23.003Z,43.10
2018-04-29T17:58:50.521Z,42.71
2018-04-29T18:01:18.045Z,43.07
2018-04-29T18:03:45.668Z,43.10
2018-04-29T18:06:13.316Z,43.41
2018-04-29T18:08:40.890Z,43.93
2018-04-29T18:11:08.450Z,44.34
2018-04-29T18:13:35.999Z,44.59
2018-04-29T18:16:03.532Z,43.14
2018-04-29T18:18:31.137Z,44.16
2018-04-29T18:20:58.653Z,43.88
2018-04-29T18:23:26.177Z,44.32
2018-04-29T18:25:53.811Z,44.87
2018-04-29T18:28:21.331Z,45.60
2018-04-29T18:30:48.855Z,45.02
2018-04-29T18:33:16.380Z,45.93
2018-04-29T18:35:43.904Z,45.99
2018-04-29T18:38:11.431Z,45.79
2018-04-29T18:40:38.971Z,45.79
2018-04-29T18:43:06.480Z,45.71
2018-04-29T18:45:34.094Z,46.24
2018-04-29T18:48:01.549Z,46.03
2018-04-29T18:50:29.100Z,46.41
2018-04-29T18:52:56.609Z,45.17
2018-04-29T18:55:24.129Z,46.83
2018-04-29T18:57:51.666Z,46.05
2018-04-29T19:00:19.188Z,46.32
2018-04-29T19:02:46.706Z,45.63
2018-04-29T19:05:14.219Z,46.92
2018-04-29T19:07:41.733Z,46.97
2018-04-29T19:10:09.253Z,46.74
2018-04-29T19:12:36.781Z,46.15
2018-04-29T19:15:04.304Z,46.89
2018-04-29T19:17:31.824Z,46.40
2018-04-29T19:19:59.354Z,47.01
2018-04-29T19:22:26.875Z,48.01
2018-04-29T19:24:54.397Z,48.56
2018-04-29T19:27:22.020Z,48.78
2018-04-29T19:29:49.557Z,48.82
2018-04-29T19:32:17.090Z,48.38
2018-04-29T19:34:44.622Z,48.96
2018-04-29T19:37:12.158Z,48.56
2018-04-29T19:39:39.691Z,48.23
2018-04-29T19:42:07.211Z,48.31
2018-04-29T19:44:34.736Z,49.23
2018-04-29T19:47:02.288Z,49.56
2018-04-29T19:49:29.866Z,48.82
2018-04-29T19:51:57.480Z,49.37
2018-04-29T19:54:25.013Z,49.61
2018-04-29T19:56:52.543Z,49.31
2018-04-29T19:59:20.074Z,49.60
2018-04-29T20:01:47.615Z,49.79
2018-04-29T20:04:15.158Z,49.40
2018-04-29T20:06:42.683Z,49.90
2018-04-29T20:09:10.210Z,48.49
2018-04-29T20:11:37.818Z,49.63
2018-04-29T20:14:05.583Z,48.39
2018-04-29T20:16:33.109Z,49.78
2018-04-29T20:19:00.650Z,49.81
2018-04-29T20:21:28.223Z,49.36
2018-04-29T20:23:55.795Z,50.56
2018-04-29T20:26:23.300Z,50.57
2018-04-29T20:28:50.823Z,49.37
2018-04-29T20:31:18.354Z,50.94
2018-04-29T20:33:45.867Z,51.01
2018-04-29T20:36:13.432Z,50.63
2018-04-29T20:38:40.960Z,49.88
2018-04-29T20:41:08.663Z,50.57
2018-04-29T20:43:36.373Z,50.48
2018-04-29T20:46:03.888Z,49.93
2018-04-29T20:48:31.489Z,50.88
2018-04-29T20:50:58.966Z,49.75
2018-04-29T20:53:26.491Z,50.69
2018-04-29T20:55:54.024Z,51.82
2018-04-29T20:58:21.624Z,50.50
2018-04-29T21:00:49.221Z,52.39
2018-04-29T21:03:16.743Z,52.32
2018-04-29T21:05:44.260Z,51.67
2018-04-29T21:08:11.779Z,51.71
2018-04-29T21:10:39.313Z,51.77
2018-04-29T21:13:06.835Z,52.48
2018-04-29T21:15:34.404Z,50.44
2018-04-29T21:18:01.996Z,51.20
2018-04-29T21:20:29.559Z,53.18
2018-04-29T21:22:57.113Z,52.50
2018-04-29T21:25:24.657Z,52.59
2018-04-29T21:27:52.168Z,53.42
2018-04-29T21:30:19.676Z,53.74
2018-04-29T21:32:47.210Z,53.67
2018-04-29T21:35:14.728Z,52.50
2018-04-29T21:37:42.285Z,54.41
2018-04-29T21:40:09.855Z,53.56
2018-04-29T21:42:37.433Z,55.13
2018-04-29T21:45:05.000Z,53.42
2018-04-29T21:47:32.532Z,54.25
2018-04-29T21:50:00.048Z,55.32
2018-04-29T21:52:27.559Z,56.00
2018-04-29T21:54:55.082Z,55.15
2018-04-29T21:57:22.610Z,55.39
2018-04-29T21:59:50.204Z,54.73
2018-04-29T22:02:17.748Z,54.29
2018-04-29T22:04:45.351Z,56.04
2018-04-29T22:07:12.925Z,55.70
2018-04-29T22:09:40.509Z,55.44
2018-04-29T22:12:08.040Z,55.33
2018-04-29T22:14:35.565Z,54.94
2018-04-29T22:17:03.084Z,55.26
2018-04-29T22:19:30.622Z,57.25
2018-04-29T22:21:58.174Z,57.39
2018-04-29T22:24:25.768Z,56.88
2018-04-29T22:26:53.394Z,56.88
2018-04-29T22:29:20.967Z,56.24
2018-04-29T22:31:48.501Z,56.16
2018-04-29T22:34:16.011Z,57.65
2018-04-29T22:36:43.532Z,56.28
2018-04-29T22:39:11.058Z,58.30
2018-04-29T22:41:38.577Z,57.35
2018-04-29T22:44:06.212Z,56.85
2018-04-29T22:46:33.748Z,58.49
2018-04-29T22:49:01.308Z,58.55
2018-04-29T22:51:28.828Z,57.74
2018-04-29T22:53:56.409Z,58.63
2018-04-29T22:56:23.928Z,58.98
2018-04-29T22:58:51.456Z,56.94
2018-04-29T23:01:18.980Z,58.09
2018-04-29T23:03:46.494Z,59.26
2018-04-29T23:06:14.023Z,60.03
2018-04-29T23:08:41.541Z,58.06
2018-04-29T23:11:09.063Z,59.82
2018-04-29T23:13:36.595Z,60.04
2018-04-29T23:16:04.107Z,58.25
2018-04-29T23:18:31.624Z,60.31
2018-04-29T23:20:59.143Z,60.32
2018-04-29T23:23:26.729Z,59.67
2018-04-29T23:25:54.288Z,59.79
2018-04-29T23:28:21.851Z,60.42
2018-04-29T23:30:49.380Z,58.21
2018-04-29T23:33:16.896Z,58.44
2018-04-29T23:35:44.395Z,59.07
2018-04-29T23:38:11.985Z,60.69
2018-04-29T23:40:39.504Z,58.43
2018-04-29T23:43:07.028Z,57.97
2018-04-29T23:45:34.540Z,59.79
2018-04-29T23:48:02.128Z,59.27
2018-04-29T23:50:29.671Z,60.11
2018-04-29T23:52:57.243Z,59.76
2018-04-29T23:55:24.774Z,58.97
2018-04-29T23:57:52.293Z,60.81
